Time;durP1;ratioP1;P1;durP2;ratioP2;P2;SDS_P1;SDS_P2;PMS_P1;PMS_P2;Temp;Humidity;BMP_temperature;BMP_pressure;BME280_temperature;BME280_humidity;BME280_pressure;Samples;Min_cycle;Max_cycle;Signal;HPM_P1;HPM_P2
2021/01/12 00:00:11;;;;;;;45.13;26.35;;;-8.20;99.90;;;-7.99;78.14;97896.13;171645;28;1208;-74
2021/01/12 00:00:21;;;;;;;45.27;27.73;;;-8.20;99.90;;;-8.00;78.26;97895.28;171552;28;5291;-73
2021/01/12 00:00:31;;;;;;;47.63;28.20;;;-8.20;99.90;;;-7.99;78.27;97890.91;172406;28;1274;-72
2021/01/12 00:00:37;;;;;;;47.03;27.90;;;-8.20;99.90;;;-7.99;78.45;97889.16;172311;28;4770;-72
2021/01/12 00:00:44;;;;;;;47.35;27.45;;;-8.20;99.90;;;-8.00;78.35;97887.44;171694;28;1176;-76
2021/01/12 00:00:50;;;;;;;47.87;27.37;;;-8.20;99.90;;;-7.99;78.55;97888.28;171598;28;1427;-73
2021/01/12 00:00:55;;;;;;;46.85;27.20;;;-8.20;99.90;;;-7.97;78.23;97897.75;171765;28;1029;-75
2021/01/12 00:01:02;;;;;;;47.22;27.45;;;-8.20;99.90;;;-7.98;78.51;97896.06;170352;29;1356;-74
2021/01/12 00:01:08;;;;;;;47.85;27.70;;;-8.20;99.90;;;-8.01;78.35;97884.88;171100;29;965;-75
2021/01/12 00:01:14;;;;;;;47.63;28.05;;;-8.20;99.90;;;-8.06;78.01;97879.84;171082;29;1132;-75
2021/01/12 00:01:19;;;;;;;46.95;27.33;;;-8.20;99.90;;;-8.02;78.11;97889.25;172402;28;974;-74
2021/01/12 00:01:25;;;;;;;47.25;27.27;;;-8.20;99.90;;;-7.98;78.11;97895.22;172379;28;1347;-75
2021/01/12 00:01:31;;;;;;;46.38;26.75;;;-8.20;99.90;;;-7.99;78.14;97893.53;171689;28;1247;-76
2021/01/12 00:01:43;;;;;;;45.67;26.53;;;-8.20;99.90;;;-8.01;78.11;97893.56;173048;28;1146;-72
2021/01/12 00:01:49;;;;;;;43.70;25.73;;;-8.20;99.90;;;-7.97;78.17;97902.97;171555;28;4938;-73
2021/01/12 00:01:55;;;;;;;43.57;25.83;;;-8.20;99.90;;;-8.03;78.32;97890.16;170989;29;1150;-73
2021/01/12 00:02:02;;;;;;;44.03;25.77;;;-8.20;99.90;;;-7.97;78.01;97902.13;171089;29;1246;-75
2021/01/12 00:02:09;;;;;;;45.22;26.10;;;-8.20;99.90;;;-7.98;78.16;97897.84;173107;28;961;-76
2021/01/12 00:02:23;;;;;;;47.20;26.97;;;-8.20;99.90;;;-8.02;78.29;97884.03;172331;28;1280;-77
2021/01/12 00:02:29;;;;;;;44.97;26.40;;;-8.20;99.90;;;-7.95;78.17;97895.94;170851;29;4815;-74
2021/01/12 00:02:35;;;;;;;44.72;26.48;;;-8.20;99.90;;;-8.02;78.23;97889.25;170425;29;1057;-73
2021/01/12 00:02:41;;;;;;;42.60;25.75;;;-8.20;99.90;;;-8.04;78.15;97887.63;172355;28;1201;-74
2021/01/12 00:02:53;;;;;;;41.87;25.20;;;-8.20;99.90;;;-8.00;78.18;97892.66;173123;28;870;-73
2021/01/12 00:03:00;;;;;;;42.70;24.67;;;-8.20;99.90;;;-8.02;78.05;97885.78;171026;29;1092;-74
2021/01/12 00:03:06;;;;;;;41.83;23.97;;;-8.20;99.90;;;-7.98;78.24;97896.06;172366;28;1248;-74
2021/01/12 00:03:12;;;;;;;44.03;23.98;;;-8.20;99.90;;;-7.98;78.37;97895.22;173034;28;1449;-76
2021/01/12 00:03:18;;;;;;;42.77;23.87;;;-8.20;99.90;;;-7.97;78.35;97902.97;171755;28;1049;-74
2021/01/12 00:03:24;;;;;;;41.75;23.67;;;-8.20;99.90;;;-7.97;78.66;97889.06;170457;29;839;-73
2021/01/12 00:03:30;;;;;;;44.33;24.20;;;-8.20;99.90;;;-8.04;78.63;97880.66;171101;29;1072;-75
2021/01/12 00:03:36;;;;;;;43.85;24.58;;;-8.20;99.90;;;-7.97;78.44;97892.53;171602;28;1450;-76
2021/01/12 00:03:46;;;;;;;42.03;24.52;;;-8.20;99.90;;;-7.95;78.62;97893.31;171112;29;835;-75
2021/01/12 00:03:53;;;;;;;41.97;24.68;;;-8.20;99.90;;;-7.94;78.37;97891.56;171673;28;1328;-76
2021/01/12 00:03:59;;;;;;;40.53;24.37;;;-8.20;99.90;;;-7.95;78.70;97890.72;171094;29;1049;-75
2021/01/12 00:04:05;;;;;;;41.30;24.05;;;-8.20;99.90;;;-8.03;78.75;97877.09;172459;28;906;-73
2021/01/12 00:04:12;;;;;;;43.20;23.98;;;-8.20;99.90;;;-7.97;78.74;97887.31;171637;28;1323;-75
2021/01/12 00:04:18;;;;;;;45.13;24.33;;;-8.20;99.90;;;-7.96;78.38;97889.00;171769;28;1210;-74
2021/01/12 00:04:23;;;;;;;46.03;24.63;;;-8.20;99.90;;;-7.94;78.56;97896.78;172445;28;1052;-74
2021/01/12 00:04:32;;;;;;;47.20;24.52;;;-8.20;99.90;;;-7.97;78.22;97892.53;172347;28;1707;-74
2021/01/12 00:04:38;;;;;;;46.87;24.57;;;-8.20;99.90;;;-7.99;78.26;97889.16;171663;28;1347;-74
2021/01/12 00:04:46;;;;;;;45.63;24.95;;;-8.20;99.90;;;-7.98;78.26;97890.00;173091;28;1021;-74
2021/01/12 00:04:53;;;;;;;46.27;25.10;;;-8.20;99.90;;;-8.05;78.28;97878.94;172370;28;1360;-73
2021/01/12 00:04:58;;;;;;;46.50;25.68;;;-8.20;99.90;;;-8.03;77.99;97892.78;172416;28;985;-72
2021/01/12 00:05:07;;;;;;;47.00;26.42;;;-8.20;99.90;;;-8.04;78.17;97891.09;171108;29;1124;-77
2021/01/12 00:05:14;;;;;;;47.20;26.67;;;-8.20;99.90;;;-8.07;78.17;97882.53;172226;28;1889;-73
2021/01/12 00:05:21;;;;;;;45.63;26.43;;;-8.20;99.90;;;-8.10;78.24;97882.66;172403;28;1067;-77
2021/01/12 00:05:28;;;;;;;43.90;26.13;;;-8.20;99.90;;;-8.09;78.47;97877.38;172954;28;1207;-72
2021/01/12 00:05:34;;;;;;;44.07;26.10;;;-8.20;99.90;;;-8.02;78.31;97891.00;171662;28;1345;-72
2021/01/12 00:05:40;;;;;;;43.97;26.30;;;-8.20;99.90;;;-8.06;78.71;97887.69;171670;28;1367;-73
2021/01/12 00:05:45;;;;;;;44.75;26.33;;;-8.20;99.90;;;-8.01;78.63;97887.50;173113;28;871;-76
2021/01/12 00:05:51;;;;;;;44.92;26.23;;;-8.20;99.90;;;-7.98;78.50;97895.22;171611;28;1165;-73
2021/01/12 00:05:57;;;;;;;45.63;26.67;;;-8.20;99.90;;;-8.04;78.08;97890.25;171691;28;1170;-74
2021/01/12 00:06:03;;;;;;;44.88;26.55;;;-8.20;99.90;;;-7.99;78.57;97899.59;171782;28;894;-76
2021/01/12 00:06:14;;;;;;;45.28;26.33;;;-8.20;99.90;;;-7.99;78.42;97898.75;170441;29;776;-76
2021/01/12 00:06:20;;;;;;;47.46;26.99;;;-8.20;99.90;;;-7.98;78.27;97897.84;170328;29;1542;-76
2021/01/12 00:06:25;;;;;;;49.80;27.05;;;-8.20;99.90;;;-8.07;78.27;97886.00;171057;29;1029;-73
2021/01/12 00:06:32;;;;;;;52.08;26.90;;;-8.20;99.90;;;-8.05;78.23;97880.72;171094;29;1080;-73
2021/01/12 00:06:40;;;;;;;51.88;26.95;;;-8.20;99.90;;;-8.01;78.00;97898.78;171663;28;1553;-72
2021/01/12 00:06:49;;;;;;;50.63;26.40;;;-8.20;99.90;;;-8.02;78.19;97897.09;171795;28;875;-73
2021/01/12 00:06:55;;;;;;;48.74;26.36;;;-8.20;99.90;;;-8.10;78.09;97883.50;171765;28;1141;-74
2021/01/12 00:07:01;;;;;;;47.42;26.77;;;-8.20;99.90;;;-8.08;78.21;97889.50;171026;29;1056;-74
2021/01/12 00:07:07;;;;;;;47.17;26.77;;;-8.20;99.90;;;-8.09;78.08;97884.38;171118;29;1021;-76
2021/01/12 00:07:14;;;;;;;46.55;26.92;;;-8.20;99.90;;;-8.26;78.49;97851.97;171021;29;1261;-77
2021/01/12 00:07:23;;;;;;;45.20;26.70;;;-8.20;99.90;;;-8.14;78.16;97876.72;171784;28;824;-75
2021/01/12 00:07:28;;;;;;;43.97;26.10;;;-8.20;99.90;;;-8.07;78.29;97885.13;172437;28;1124;-75
2021/01/12 00:07:34;;;;;;;42.72;25.75;;;-8.20;99.90;;;-8.11;78.39;97880.97;172316;28;1184;-74
2021/01/12 00:07:40;;;;;;;42.20;25.65;;;-8.20;99.90;;;-8.05;78.29;97889.41;173034;28;1317;-74
2021/01/12 00:07:47;;;;;;;42.03;25.42;;;-8.20;99.90;;;-8.05;78.24;97886.78;171778;28;898;-72
2021/01/12 00:07:53;;;;;;;41.22;25.34;;;-8.20;99.90;;;-8.04;78.06;97891.09;171019;28;1366;-75
2021/01/12 00:07:59;;;;;;;42.30;25.52;;;-8.20;99.90;;;-8.02;78.31;97898.84;171724;28;1131;-73
2021/01/12 00:08:08;;;;;;;42.28;25.55;;;-8.20;99.90;;;-8.08;78.02;97886.88;171126;29;950;-76
2021/01/12 00:08:14;;;;;;;42.42;25.37;;;-8.20;99.90;;;-8.08;78.05;97888.69;171703;28;955;-76
2021/01/12 00:08:20;;;;;;;42.22;25.33;;;-8.20;99.90;;;-8.05;78.09;97886.78;170412;29;919;-77
2021/01/12 00:08:26;;;;;;;41.36;24.94;;;-8.20;99.90;;;-8.05;77.95;97888.53;171796;28;965;-77
2021/01/12 00:08:32;;;;;;;41.88;24.75;;;-8.30;99.90;;;-8.10;77.97;97887.88;171700;28;1244;-73
2021/01/12 00:08:38;;;;;;;41.42;24.55;;;-8.30;99.90;;;-8.08;78.35;97889.50;171751;28;997;-77
2021/01/12 00:08:44;;;;;;;40.73;24.30;;;-8.20;99.90;;;-8.06;78.12;97890.31;171066;29;993;-75
2021/01/12 00:08:50;;;;;;;41.55;24.30;;;-8.20;99.90;;;-8.11;78.16;97881.81;171701;28;1293;-74
2021/01/12 00:08:55;;;;;;;43.13;24.25;;;-8.30;99.90;;;-8.12;78.25;97882.72;172452;28;1037;-74
2021/01/12 00:09:03;;;;;;;43.53;24.35;;;-8.20;99.90;;;-8.15;78.53;97872.41;172363;28;1211;-74
2021/01/12 00:09:09;;;;;;;45.27;24.67;;;-8.30;99.90;;;-8.17;78.33;97869.00;173099;28;1131;-73
2021/01/12 00:09:15;;;;;;;45.25;24.70;;;-8.30;99.90;;;-8.02;78.45;97888.41;171130;29;883;-74
2021/01/12 00:09:21;;;;;;;44.95;24.88;;;-8.30;99.90;;;-8.09;78.74;97885.22;172263;28;1395;-75
2021/01/12 00:09:27;;;;;;;44.83;25.27;;;-8.20;99.90;;;-8.12;78.63;97877.50;171099;29;997;-76
2021/01/12 00:09:33;;;;;;;43.65;25.25;;;-8.30;99.90;;;-8.21;78.67;97870.03;171766;28;863;-73
2021/01/12 00:09:39;;;;;;;43.63;25.77;;;-8.30;99.90;;;-8.27;78.59;97862.47;171663;28;1310;-72
2021/01/12 00:09:45;;;;;;;43.23;26.23;;;-8.30;99.90;;;-8.11;78.59;97887.03;172429;28;866;-74
2021/01/12 00:09:51;;;;;;;44.20;26.30;;;-8.30;99.90;;;-8.07;78.82;97892.97;173695;28;1353;-76
2021/01/12 00:09:57;;;;;;;44.08;26.38;;;-8.30;99.90;;;-8.27;78.65;97852.00;172422;28;1088;-73
2021/01/12 00:10:06;;;;;;;45.22;26.70;;;-8.30;99.90;;;-8.01;78.53;97900.56;172417;28;1127;-77
2021/01/12 00:10:12;;;;;;;46.47;26.78;;;-8.30;99.90;;;-8.05;78.74;97888.53;172390;28;1128;-75
2021/01/12 00:10:20;;;;;;;47.10;27.10;;;-8.20;99.90;;;-8.04;78.60;97888.50;171155;29;851;-74
2021/01/12 00:10:26;;;;;;;46.40;27.33;;;-8.20;99.90;;;-8.02;78.61;97889.25;170979;29;5029;-76
2021/01/12 00:10:32;;;;;;;45.05;26.95;;;-8.20;99.90;;;-8.08;78.36;97875.63;171085;29;911;-72
2021/01/12 00:10:38;;;;;;;45.15;26.70;;;-8.20;99.90;;;-8.18;78.68;97859.47;170441;29;1124;-73
2021/01/12 00:10:44;;;;;;;45.20;26.48;;;-8.20;99.90;;;-8.12;78.80;97863.59;170438;29;1046;-74
2021/01/12 00:10:50;;;;;;;44.20;25.83;;;-8.20;99.90;;;-8.10;79.03;97873.06;170427;29;1069;-75
2021/01/12 00:10:55;;;;;;;46.20;26.10;;;-8.20;99.90;;;-8.03;78.91;97887.56;171695;28;1165;-75
2021/01/12 00:11:01;;;;;;;46.63;26.33;;;-8.20;99.90;;;-8.02;78.81;97876.19;172354;28;1250;-72
2021/01/12 00:11:07;;;;;;;45.88;26.40;;;-8.20;99.90;;;-8.02;78.63;97888.41;172389;28;893;-75
2021/01/12 00:11:21;;;;;;;45.67;26.70;;;-8.20;99.90;;;-8.05;78.47;97888.53;171647;28;1181;-74
2021/01/12 00:11:27;;;;;;;43.72;26.36;;;-8.20;99.90;;;-8.07;78.55;97886.00;172181;28;5961;-73
2021/01/12 00:11:33;;;;;;;42.90;26.27;;;-8.20;99.90;;;-8.02;78.37;97896.25;173070;28;800;-73
2021/01/12 00:11:39;;;;;;;43.13;25.98;;;-8.20;99.90;;;-8.05;78.47;97883.31;172323;28;1009;-75
2021/01/12 00:11:45;;;;;;;42.50;25.63;;;-8.20;99.90;;;-8.15;78.27;97869.78;171667;28;1005;-75
2021/01/12 00:11:55;;;;;;;42.20;25.45;;;-8.20;99.90;;;-8.11;78.47;97873.97;172273;28;1208;-72
2021/01/12 00:12:01;;;;;;;43.09;25.59;;;-8.20;99.90;;;-8.18;78.44;97855.09;171757;28;1161;-74
2021/01/12 00:12:07;;;;;;;41.58;24.92;;;-8.20;99.90;;;-8.02;78.69;97889.25;171672;28;1529;-75
2021/01/12 00:12:13;;;;;;;41.20;24.77;;;-8.20;99.90;;;-8.01;78.94;97879.66;171095;29;1049;-74
2021/01/12 00:12:19;;;;;;;42.97;25.03;;;-8.20;99.90;;;-8.02;78.54;97883.19;172337;28;1328;-73
2021/01/12 00:12:26;;;;;;;41.34;24.38;;;-8.20;99.90;;;-8.02;78.82;97885.78;173094;28;946;-76
2021/01/12 00:12:32;;;;;;;40.10;24.13;;;-8.20;99.90;;;-8.06;78.78;97877.25;172465;28;1001;-74
2021/01/12 00:12:38;;;;;;;40.47;24.20;;;-8.20;99.90;;;-8.03;78.58;97881.50;171697;28;1256;-73
2021/01/12 00:12:44;;;;;;;40.47;24.33;;;-8.20;99.90;;;-8.06;78.48;97877.25;171755;28;1045;-73
2021/01/12 00:12:53;;;;;;;41.13;24.30;;;-8.20;99.90;;;-8.06;78.39;97876.41;171666;28;1281;-75
2021/01/12 00:12:58;;;;;;;43.27;24.50;;;-8.20;99.90;;;-8.02;78.48;97893.63;172398;28;848;-74
2021/01/12 00:13:04;;;;;;;43.05;24.55;;;-8.20;99.90;;;-8.03;78.38;97894.56;172341;28;1225;-73
2021/01/12 00:13:10;;;;;;;43.08;24.73;;;-8.20;99.90;;;-8.08;78.52;97886.88;171089;29;1073;-76
2021/01/12 00:13:16;;;;;;;42.00;24.27;;;-8.20;99.90;;;-8.06;78.53;97886.84;171763;28;887;-73
2021/01/12 00:13:23;;;;;;;41.50;24.00;;;-8.20;99.90;;;-8.22;78.45;97860.50;172458;28;891;-73
2021/01/12 00:13:30;;;;;;;41.53;24.23;;;-8.30;99.90;;;-8.07;78.19;97875.53;172362;28;1399;-75
2021/01/12 00:13:36;;;;;;;41.60;23.83;;;-8.20;99.90;;;-8.05;77.87;97892.00;173128;28;972;-75
2021/01/12 00:13:41;;;;;;;41.35;23.77;;;-8.30;99.90;;;-8.20;77.83;97866.53;172341;28;1287;-74
2021/01/12 00:13:47;;;;;;;41.88;24.05;;;-8.30;99.90;;;-8.14;78.02;97875.88;172419;28;926;-75
2021/01/12 00:13:53;;;;;;;42.22;24.25;;;-8.30;99.90;;;-8.14;77.82;97879.34;171776;28;990;-73
2021/01/12 00:13:59;;;;;;;42.20;23.92;;;-8.30;99.90;;;-8.14;78.21;97881.09;171682;28;1231;-73
2021/01/12 00:14:30;;;;;;;42.93;24.20;;;-8.30;99.90;;;-8.13;78.06;97881.00;172431;28;985;-76
2021/01/12 00:14:31;;;;;;;40.77;23.53;;;-8.30;99.90;;;-8.21;78.06;97876.13;171714;28;956;-73
2021/01/12 00:14:37;;;;;;;41.00;23.80;;;-8.30;99.90;;;-8.25;78.24;97864.09;171119;29;874;-73
2021/01/12 00:14:43;;;;;;;40.83;23.93;;;-8.30;99.90;;;-8.25;78.04;97869.34;172380;28;1248;-72
2021/01/12 00:14:49;;;;;;;38.92;23.70;;;-8.30;99.90;;;-8.33;77.93;97863.59;171742;28;1065;-73
2021/01/12 00:14:55;;;;;;;39.67;23.27;;;-8.30;99.90;;;-8.16;78.53;97886.38;171805;28;1108;-76
2021/01/12 00:15:04;;;;;;;39.47;23.25;;;-8.30;99.90;;;-8.18;78.25;97877.75;171784;28;1060;-76
2021/01/12 00:15:11;;;;;;;41.37;23.23;;;-8.30;99.90;;;-8.16;78.19;97881.16;171790;28;882;-75
2021/01/12 00:15:17;;;;;;;42.77;23.40;;;-8.30;99.90;;;-8.16;78.11;97881.16;171718;28;1025;-76
2021/01/12 00:15:23;;;;;;;42.00;23.90;;;-8.30;99.90;;;-8.17;78.61;97876.84;171091;29;867;-73
2021/01/12 00:15:29;;;;;;;42.03;23.92;;;-8.30;99.90;;;-8.19;78.17;97873.44;172435;28;998;-76
2021/01/12 00:15:35;;;;;;;41.55;23.85;;;-8.30;99.90;;;-8.14;78.24;97873.25;171752;28;1037;-72
2021/01/12 00:15:40;;;;;;;40.77;23.73;;;-8.30;99.90;;;-8.14;77.90;97883.72;172476;28;1112;-76
2021/01/12 00:15:46;;;;;;;40.83;24.13;;;-8.30;99.90;;;-8.18;77.93;97886.44;172452;28;1029;-76
2021/01/12 00:15:52;;;;;;;41.42;24.23;;;-8.40;99.90;;;-8.20;77.93;97876.97;171687;28;1323;-74
2021/01/12 00:15:58;;;;;;;43.15;24.30;;;-8.40;99.90;;;-8.28;78.16;97868.59;172347;28;1255;-77
2021/01/12 00:16:04;;;;;;;42.53;24.52;;;-8.40;99.90;;;-8.20;78.26;97877.81;172287;28;1273;-75
2021/01/12 00:16:10;;;;;;;41.75;24.63;;;-8.40;99.90;;;-8.26;78.22;97864.16;171631;28;1371;-75
2021/01/12 00:16:20;;;;;;;40.65;24.38;;;-8.40;99.90;;;-8.18;78.25;97882.97;172428;28;1064;-76
2021/01/12 00:16:26;;;;;;;37.80;24.33;;;-8.40;99.90;;;-8.22;78.37;97871.81;171619;28;1324;-73
2021/01/12 00:16:32;;;;;;;38.33;24.38;;;-8.40;99.90;;;-8.24;78.26;97865.78;172334;28;1204;-73
2021/01/12 00:16:38;;;;;;;39.63;24.23;;;-8.40;99.90;;;-8.20;78.31;97870.00;171797;28;827;-74
2021/01/12 00:16:43;;;;;;;40.40;24.48;;;-8.40;99.90;;;-8.21;78.58;97862.22;171640;28;1189;-73
2021/01/12 00:16:51;;;;;;;41.33;24.43;;;-8.40;99.90;;;-8.17;78.38;97874.22;170992;29;1226;-76
2021/01/12 00:16:59;;;;;;;41.87;24.53;;;-8.30;99.90;;;-8.15;78.46;97877.63;171776;28;1208;-73
2021/01/12 00:17:07;;;;;;;41.47;24.47;;;-8.30;99.90;;;-8.16;78.45;97881.16;172458;28;905;-75
2021/01/12 00:17:14;;;;;;;41.70;24.35;;;-8.30;99.90;;;-8.24;78.23;97865.78;171785;28;1037;-76
2021/01/12 00:17:20;;;;;;;41.07;24.30;;;-8.40;99.90;;;-8.18;78.34;97877.75;172433;28;831;-74
2021/01/12 00:17:26;;;;;;;41.83;24.47;;;-8.40;99.90;;;-8.21;78.28;97872.66;172452;28;943;-74
2021/01/12 00:17:33;;;;;;;41.55;24.33;;;-8.40;99.90;;;-8.17;78.25;97876.84;170978;29;1212;-74
2021/01/12 00:17:39;;;;;;;40.57;24.13;;;-8.40;99.90;;;-8.17;78.19;97875.06;171756;28;966;-76
2021/01/12 00:17:45;;;;;;;41.53;24.00;;;-8.30;99.90;;;-8.25;78.18;97865.88;172335;28;1153;-73
2021/01/12 00:17:51;;;;;;;42.50;24.00;;;-8.40;99.90;;;-8.27;78.16;97868.53;173095;28;1092;-72
2021/01/12 00:17:56;;;;;;;42.20;23.92;;;-8.40;99.90;;;-8.17;78.20;97880.31;171769;28;862;-76
2021/01/12 00:18:03;;;;;;;42.65;24.15;;;-8.40;99.90;;;-8.30;78.22;97867.84;171763;28;831;-75
2021/01/12 00:18:08;;;;;;;44.10;24.40;;;-8.40;99.90;;;-8.23;78.07;97874.47;171102;29;1029;-73
2021/01/12 00:18:14;;;;;;;44.65;24.30;;;-8.40;99.90;;;-8.18;78.20;97881.19;171723;28;985;-72
2021/01/12 00:18:20;;;;;;;44.67;24.35;;;-8.40;99.90;;;-8.29;78.34;97859.09;171764;28;871;-73
2021/01/12 00:18:26;;;;;;;44.70;24.33;;;-8.40;99.90;;;-8.23;78.29;97871.84;173104;28;1048;-75
2021/01/12 00:18:32;;;;;;;45.17;24.50;;;-8.40;99.90;;;-8.24;77.99;97871.00;172436;28;1056;-74
2021/01/12 00:18:38;;;;;;;44.67;24.60;;;-8.40;99.90;;;-8.31;77.94;97867.00;172371;28;1231;-76
2021/01/12 00:18:44;;;;;;;43.53;24.92;;;-8.40;99.90;;;-8.28;77.66;97868.59;171790;28;799;-76
2021/01/12 00:18:50;;;;;;;43.80;25.08;;;-8.40;99.90;;;-8.32;77.85;97864.44;172365;28;1013;-73
2021/01/12 00:18:56;;;;;;;42.17;24.60;;;-8.40;99.90;;;-8.25;78.05;97871.94;171772;28;1041;-73
2021/01/12 00:19:02;;;;;;;41.28;24.15;;;-8.40;99.90;;;-8.25;77.77;97871.94;171658;28;1137;-76
2021/01/12 00:19:08;;;;;;;41.93;24.13;;;-8.40;99.90;;;-8.29;77.64;97869.53;171764;28;1045;-75
2021/01/12 00:19:14;;;;;;;41.73;23.83;;;-8.40;99.90;;;-8.27;77.87;97862.47;173021;28;1159;-74
2021/01/12 00:19:20;;;;;;;42.38;23.88;;;-8.40;99.90;;;-8.23;78.02;97875.31;172349;28;1199;-74
2021/01/12 00:19:26;;;;;;;44.22;24.75;;;-8.40;99.90;;;-8.24;77.74;97875.41;172363;28;985;-77
2021/01/12 00:19:34;;;;;;;44.53;25.20;;;-8.40;99.90;;;-8.24;77.96;97875.41;172359;28;1521;-72
2021/01/12 00:19:41;;;;;;;44.10;24.57;;;-8.40;99.90;;;-8.28;77.79;97871.19;171774;28;961;-76
2021/01/12 00:19:47;;;;;;;42.43;24.37;;;-8.40;99.90;;;-8.24;77.85;97878.03;172342;28;1323;-76
2021/01/12 00:19:52;;;;;;;41.55;24.00;;;-8.40;99.90;;;-8.28;78.01;97874.66;171731;28;1021;-77
2021/01/12 00:19:58;;;;;;;40.28;23.17;;;-8.40;99.90;;;-8.29;78.00;97870.34;171714;28;1005;-76
2021/01/12 00:20:09;;;;;;;40.17;23.05;;;-8.40;99.90;;;-8.30;77.90;97866.09;171678;28;1295;-76
2021/01/12 00:20:15;;;;;;;40.58;23.67;;;-8.50;99.90;;;-8.29;77.89;97862.50;170401;29;1263;-73
2021/01/12 00:20:21;;;;;;;41.85;23.90;;;-8.50;99.90;;;-8.26;77.90;97877.22;171102;29;974;-73
2021/01/12 00:20:27;;;;;;;42.92;24.13;;;-8.50;99.90;;;-8.28;78.13;97869.44;171078;29;1037;-72
2021/01/12 00:20:33;;;;;;;44.78;24.60;;;-8.40;99.90;;;-8.24;77.99;97875.41;171622;28;1156;-74
2021/01/12 00:20:39;;;;;;;46.22;24.63;;;-8.50;99.90;;;-8.36;78.09;97855.91;172432;28;1057;-75
2021/01/12 00:20:45;;;;;;;46.70;24.73;;;-8.50;99.90;;;-8.39;78.00;97852.56;172373;28;1302;-75
2021/01/12 00:20:51;;;;;;;45.90;24.60;;;-8.50;99.90;;;-8.29;77.84;97872.94;171732;28;1041;-74
2021/01/12 00:20:56;;;;;;;46.13;25.17;;;-8.50;99.90;;;-8.37;77.89;97863.78;171706;28;1141;-76
2021/01/12 00:21:03;;;;;;;45.35;25.38;;;-8.50;99.90;;;-8.28;77.97;97868.59;171782;28;836;-75
2021/01/12 00:21:08;;;;;;;44.78;25.60;;;-8.40;99.90;;;-8.26;78.33;97872.00;171618;28;1580;-76
2021/01/12 00:21:26;;;;;;;44.05;25.90;;;-8.40;99.90;;;-8.27;78.36;97862.47;172452;28;1076;-73
2021/01/12 00:21:32;;;;;;;46.07;25.77;;;-8.40;99.90;;;-8.24;78.32;97867.56;171623;28;4861;-74
2021/01/12 00:21:37;;;;;;;46.60;25.80;;;-8.40;99.90;;;-8.22;78.12;97878.78;171751;28;1057;-73
2021/01/12 00:21:43;;;;;;;47.70;25.67;;;-8.40;99.90;;;-8.23;78.15;97877.94;171045;29;1002;-76
2021/01/12 00:21:49;;;;;;;47.03;25.63;;;-8.40;99.90;;;-8.46;78.10;97833.69;172371;28;1221;-76
2021/01/12 00:21:56;;;;;;;46.13;25.50;;;-8.40;99.90;;;-8.25;78.27;97871.94;172417;28;973;-76
2021/01/12 00:22:18;;;;;;;45.27;25.47;;;-8.40;99.90;;;-8.26;78.15;97872.84;171788;28;933;-74
2021/01/12 00:22:24;;;;;;;45.63;24.93;;;-8.40;99.90;;;-8.23;78.26;97871.84;172370;28;920;-76
2021/01/12 00:22:30;;;;;;;45.33;24.67;;;-8.40;99.90;;;-8.27;78.42;97870.28;171194;28;1357;-74
2021/01/12 00:22:37;;;;;;;43.30;24.65;;;-8.40;99.90;;;-8.24;78.25;97873.63;171661;28;1344;-76
2021/01/12 00:22:43;;;;;;;40.86;24.08;;;-8.40;99.90;;;-8.34;78.46;97859.28;171092;29;966;-76
2021/01/12 00:22:49;;;;;;;39.80;23.65;;;-8.40;99.90;;;-8.26;78.31;97867.63;171121;29;950;-75
2021/01/12 00:22:55;;;;;;;38.67;23.58;;;-8.40;99.90;;;-8.33;78.17;97863.59;171777;28;1053;-74
2021/01/12 00:23:01;;;;;;;39.33;23.35;;;-8.40;99.90;;;-8.34;78.30;97858.44;172315;28;1188;-73
2021/01/12 00:23:07;;;;;;;39.58;23.25;;;-8.40;99.90;;;-8.28;78.68;97872.06;172400;28;1044;-72
2021/01/12 00:23:13;;;;;;;40.30;23.40;;;-8.40;99.90;;;-8.23;78.57;97869.25;173119;28;980;-74
2021/01/12 00:23:18;;;;;;;41.63;24.02;;;-8.40;99.90;;;-8.24;78.57;97868.41;172300;28;1270;-73
2021/01/12 00:23:24;;;;;;;42.17;24.20;;;-8.40;99.90;;;-8.18;78.38;97873.38;171694;28;1196;-74
2021/01/12 00:23:30;;;;;;;43.10;24.25;;;-8.40;99.90;;;-8.23;78.35;97869.25;172460;28;952;-75
2021/01/12 00:23:36;;;;;;;43.30;24.10;;;-8.40;99.90;;;-8.28;78.38;97861.59;171680;28;1033;-76
2021/01/12 00:23:42;;;;;;;45.37;24.13;;;-8.40;99.90;;;-8.23;78.05;97870.09;171756;28;1005;-75
2021/01/12 00:23:48;;;;;;;46.00;23.87;;;-8.40;99.90;;;-8.27;78.21;97867.69;172360;28;1248;-76
2021/01/12 00:23:54;;;;;;;46.50;23.88;;;-8.40;99.90;;;-8.24;77.83;97875.41;172434;28;981;-74
2021/01/12 00:24:00;;;;;;;44.80;23.60;;;-8.40;99.90;;;-8.28;78.14;97871.19;172327;28;1206;-74
2021/01/12 00:24:07;;;;;;;44.78;23.52;;;-8.40;99.90;;;-8.30;78.18;97868.72;171636;28;1425;-75
2021/01/12 00:24:13;;;;;;;42.22;23.38;;;-8.40;99.90;;;-8.26;78.02;97870.25;172328;28;1527;-74
2021/01/12 00:24:19;;;;;;;41.17;23.40;;;-8.40;99.90;;;-8.31;78.14;97867.00;172433;28;977;-76
2021/01/12 00:24:25;;;;;;;41.00;23.27;;;-8.40;99.90;;;-8.32;78.16;97854.00;171077;29;1128;-74
2021/01/12 00:24:31;;;;;;;42.47;23.90;;;-8.40;99.90;;;-8.18;78.16;97877.75;172322;28;1264;-72
2021/01/12 00:24:36;;;;;;;42.58;24.13;;;-8.40;99.90;;;-8.25;78.32;97864.09;172428;28;1670;-75
2021/01/12 00:24:48;;;;;;;43.70;24.35;;;-8.40;99.90;;;-8.22;78.28;97873.56;172432;28;926;-76
2021/01/12 00:24:54;;;;;;;44.68;24.67;;;-8.40;99.90;;;-8.23;78.06;97875.31;171732;28;1091;-73
2021/01/12 00:25:00;;;;;;;43.58;24.63;;;-8.40;99.90;;;-8.22;78.09;97878.78;172297;28;1303;-73
2021/01/12 00:25:08;;;;;;;43.63;24.63;;;-8.50;99.90;;;-8.20;78.45;97871.75;171805;28;1049;-75
2021/01/12 00:25:14;;;;;;;42.83;24.45;;;-8.40;99.90;;;-8.24;78.25;97867.56;172331;28;1543;-75
2021/01/12 00:25:20;;;;;;;42.93;24.57;;;-8.40;99.90;;;-8.22;78.20;97878.78;172296;28;1889;-76
2021/01/12 00:25:26;;;;;;;43.22;24.63;;;-8.40;99.90;;;-8.32;78.17;97859.22;171693;28;1044;-74
2021/01/12 00:25:32;;;;;;;43.00;24.50;;;-8.50;99.90;;;-8.20;78.60;97876.97;171747;28;1076;-75
2021/01/12 00:25:38;;;;;;;41.80;24.48;;;-8.40;99.90;;;-8.24;78.74;97862.34;171105;29;1057;-73
2021/01/12 00:25:44;;;;;;;40.47;24.23;;;-8.40;99.90;;;-8.23;78.44;97866.63;171013;29;1210;-76
2021/01/12 00:25:50;;;;;;;40.25;23.73;;;-8.40;99.90;;;-8.28;78.35;97863.38;171742;28;1061;-77
2021/01/12 00:25:56;;;;;;;40.63;23.63;;;-8.40;99.90;;;-8.26;78.01;97869.38;172410;28;1000;-73
2021/01/12 00:26:07;;;;;;;41.33;23.50;;;-8.40;99.90;;;-8.26;78.22;97866.78;171687;28;1147;-72
2021/01/12 00:26:12;;;;;;;42.67;23.68;;;-8.40;99.90;;;-8.34;78.29;97863.66;172306;28;1469;-75
2021/01/12 00:26:18;;;;;;;43.45;24.05;;;-8.40;99.90;;;-8.32;78.18;97862.69;171662;28;1173;-74
2021/01/12 00:26:24;;;;;;;43.08;23.95;;;-8.40;99.90;;;-8.30;78.31;97862.63;171711;28;1005;-75
2021/01/12 00:26:30;;;;;;;42.95;23.75;;;-8.40;99.90;;;-8.30;78.59;97863.47;171744;28;1002;-73
2021/01/12 00:26:36;;;;;;;43.45;23.40;;;-8.50;99.90;;;-8.25;78.12;97876.31;171750;28;886;-73
2021/01/12 00:26:42;;;;;;;43.25;23.27;;;-8.40;99.90;;;-8.32;78.44;97861.84;170995;29;1293;-72
2021/01/12 00:26:49;;;;;;;43.78;23.35;;;-8.40;99.90;;;-8.29;78.34;97865.13;172297;28;1341;-74
2021/01/12 00:26:55;;;;;;;43.58;23.00;;;-8.40;99.90;;;-8.37;78.20;97854.19;173033;28;1088;-76
2021/01/12 00:27:01;;;;;;;42.10;22.77;;;-8.40;99.90;;;-8.33;78.08;97866.19;171751;28;1014;-76
2021/01/12 00:27:08;;;;;;;41.60;22.95;;;-8.50;99.90;;;-8.31;78.09;97871.38;172452;28;871;-74
2021/01/12 00:27:16;;;;;;;41.05;22.77;;;-8.50;99.90;;;-8.30;78.28;97878.28;171642;28;1454;-73
2021/01/12 00:27:23;;;;;;;41.67;23.00;;;-8.50;99.90;;;-8.38;78.49;97860.31;170963;29;1257;-75
2021/01/12 00:27:28;;;;;;;41.33;23.37;;;-8.50;99.90;;;-8.32;78.17;97869.66;171776;28;929;-75
2021/01/12 00:27:34;;;;;;;40.77;23.13;;;-8.50;99.90;;;-8.43;78.07;97851.81;171780;28;926;-75
2021/01/12 00:27:40;;;;;;;40.78;23.40;;;-8.50;99.90;;;-8.37;78.11;97863.78;171085;29;997;-74
2021/01/12 00:27:46;;;;;;;40.85;23.38;;;-8.50;99.90;;;-8.38;78.16;97864.69;170948;29;1417;-76
2021/01/12 00:27:53;;;;;;;39.38;23.25;;;-8.50;99.90;;;-8.41;78.19;97854.38;172407;28;1025;-77
2021/01/12 00:27:59;;;;;;;39.28;23.56;;;-8.50;99.90;;;-8.39;78.20;97852.56;170327;29;1397;-77
2021/01/12 00:28:05;;;;;;;40.40;23.80;;;-8.50;99.90;;;-8.36;78.47;97863.72;171677;28;1190;-74
2021/01/12 00:28:11;;;;;;;40.55;23.90;;;-8.50;99.90;;;-8.29;78.10;97869.53;171088;29;1116;-74